Accueil
METAR-TAF:

METAR-TAF

Aéroports :

Base aérienne

Landivisiau, France

latitude: 48-31N, longitude: 004-09W, altitude: 106 m

Observation

Le bulletin a été fait il y a 43 minutes, à 06:30 UTC
Vent 3 kt de sud-ouest
Température 6°C
Humidité 93%
Pression 1044 hPa
Visibilité 10 km ou plus
Ciel couvert à une hauteur de 4500 ft

METAR: LFRJ 050630Z AUTO 22003KT 9999 OVC045 06/05 Q1044

Heure: 08:13 (07:13 UTC)


TAF: absent

Observations et prévisions météorologiques de plus de 4000 aéroports (messages METAR et TAF).

Les stations disponibles sont représentées par des disques jaunes et rouges sur la carte.

Passer la souris dessus pour voir le nom de la station.

Cliquer dessus pour voir les observations et prévisions météorologiques.

Pour changer de carte: cliquez sur les boutons verts avec une croix noire pour zoomer, sur le bouton vert avec un tiret pour effectuer un zoom arrière, ou sur les flèches vertes pour les cartes adjacentes.


METAR-TAF: